Timeline UpdatesTrip UpdatesNews PostsPvt PostsTravel TipsAdmin PostsConv PostsFollowed PostsChat RequestsBlog PostsPNR Posts

Disclaimer
Search
 
 
Thu Oct 2, 2014 15:56:06 ISTHomeTrainsΣChainsAtlasPNRForumGalleryNewsFAQTripsMembersLoginFeedback
No Recent News for this Train
Other Trains in the News **new
Latest...
.
Sat Feb 22, 2014 (10:28PM)
⇐ Return Journey: Train# 58111

58112/Itwari-Tatanagar Jn Passenger

Time-Table HAS CHANGED.
Sep 03 (1:12PM)
Change Departure Station:
Change Arrival Station:
Post a Train Travel TipPost a Train Travel Tip **new
Post a Comment/Question/Picture/VideoPost a Comment/Question/Picture/Video
Pantry/Catering
✕ NO Pantry Car
✕ NO Catering
RSA - Rake Sharing
Rake/Coach Composition
ENG:SLR-1 UR-3 SL-4 UR-3 VP-1 SLR-1; Entry# 189608 ; Author: sunilsagitarius
Loco
WAM-4 TATA Shed; Entry# 545455
News    PNR    Forum    Time-Table    Availability    Fare Chart    Map    Arr/Dep History    Trips    Gallery    ΣChains    X/O    Timeline    
Travel Time: 26h 35m    107 halts    Distance: 877 km    Avg Speed: 32 km/hr
Type: Passenger
Zone: SER/South Eastern
Departs @ 21:30 (Avg 8m late)
Platform# ???
SMTWTFS
Itwari/ITR 
Arrives @ 00:05 +2 nights (Avg 3m late)
Platform# 4
SMTWTFS
Tatanagar Junction/TATA 

107 halts. 118 intermediate Stations between Itwari and Tatanagar Junction

Show ALL intermediate Stations  Show Old Time-Table

#CodeStation NameX/OArrivesAvgDepartsAvgHaltPFDay#KmSpeedElevZoneAddress
1ITRItwari (3)»  -21:30+8--10.021306mSECRNagpur, Maharashtra
2KAVKalamna (3)  21:38+1221:40+152m--12.851296mSECRNagpur, Maharashtra
3KPKamptee (3)X  21:50 21:49+1721:52 21:51+192m--110.526290mSECRKamptee, Maharashtra
4KNHNKanhan Junction (3)  22:02+1722:04+172m--115.286288mSECRKanhan, Maharashtra
5SALSalwa (2)X  22:08+2122:10+212m--121.066289mSECRNagpur, Maharashtra
6CHCRChacher (2)O  22:16+2222:18+232m--127.563284mSECRNagpur, Maharashtra
7TARTharsa (3)X  22:24+2422:26+262m--133.968292mSECRNagpur, Maharashtra
8RRLRewral (2)X  22:31+2722:33+262m--139.577293mSECRNagpur Distt, Maharashtra
9KHATKhat (2)  22:40+2722:42+272m--148.554286mSECRNagpur, Maharashtra
10BRDBhandara Road (3)X  22:53+1522:55+172m--158.454266mSECRState Highway 252 Bhandara District, Maharashtra
11TMRTumsar Road (5)O  23:15+2123:20+205m--176.488267mSECRDistt. Bhandara, Maharashtra
12MNUMundikota (2)X  23:27+2523:29+252m--186.767269mSECRBhandara, Maharashtra
13TROTirora (3)  23:38+2523:40+252m--196.768282mSECRDist Gondia, Maharashtra
14KWNKachewani (3)  23:46+2823:48+292m--1103.672303mSECRKachewani Gondia District, Maharashtra
15GJGangajhari (3)  23:55+2923:57+302m--1111.937315mSECRGondia District, Maharashtra
16GGondia Junction (7)  00:25 00:20+1000:35 00:30+1310m32126.0102316mSECRGondia 441601, Maharashtra
17GDMGudma (2)  00:43 00:37+2800:45 00:39+282m--2137.973323mSECRGondia, Maharashtra
18AGNAmgaon (2)  00:54 00:48+2700:56 00:50+272m--2148.888317mSECRGondia, Maharashtra
19SKSSalekasa (2)X  01:07 01:00+3001:09 01:02+322m--2163.653312mSECRRajnandgaon, Chhattisgarh
20DKSDarekasa (2)  01:22 01:15+3301:24 01:17+332m--2175.166381mSECRRajnandgaon, Chhattisgarh
21BTLBortalao (2)X  01:31 01:24+3401:33 01:26+362m--2182.853409mSECRRajnandgaon, Chhattisgarh
22PJBPaniajob (2)X  01:43 01:36+3601:45 01:38+382m--2191.627363mSECRRajnandgaon, Chhattisgarh
23DGGDongargarh (2)  02:00 01:55+2902:10 02:05+3010m--2199.3130 SECRDongargarh, Chhattisgarh
24JTRJatkanhar  02:14 02:08+3602:16 02:10+352m--2205.867330mSECRRajnandgaon, Chhattisgarh
25MUAMusra  02:22 02:16+3602:24 02:18+362m--2212.565323mSECRRajnandgaon, Chhattisgarh
26RJNRaj Nandgaon (3)  02:40 02:35+3002:45 02:40+305m--2230.8100313mSECRRajnandgaon, Chhattisgarh
27MUPMurhipar  02:54 02:49+3802:56 02:51+382m--2245.817319mSECRRajnandgaon, Chhattisgarh
28DURGDurg Junction (6)X  03:55 03:45+504:00 03:50+75m--2261.354299mSECRPh: 91-788-2322059, Chhattisgarh
29BQRBhilai Nagar (2)X  04:06 03:55+804:07 03:57+81 2m--2265.866298mSECRBhilai, Chhattisgarh
30BPHBBhilai Power House (3)  04:11 04:01+004:13 04:03+02m--2270.256312mSECRBhilai, Chhattisgarh
31BIABhilai (2)  04:18 04:08+1204:20 04:10+122m--2274.952309mSECRBhilai, Chhattisgarh
32DBECDevbaloda Charoda  04:24 04:14+004:26 04:16+02m--2278.322310mSECRBhilai, Chhattisgarh
33KMIKumhari (2)XO  04:46 04:36+604:48 04:38+62m--2285.820287mSECRKumhari, Chhattisgarh
34RRaipur Junction (6)XO  05:15+605:35+720m--2298.252297mSECRRaipur, Chhattisgarh
35WRCWRS Colony PH  05:38-05:40-2m--2300.936286mSECRRaipur, Chhattisgarh
36URKUrkura  05:46 05:45+1105:48 05:47+102m--2303.986275mSECRRaipur, Chhattisgarh
37MDHMandharX  05:55 05:53+1205:56 05:55+141 2m--2312.472281mSECRDonde Kalan, Chhattisgarh
38SLHSiliariX  06:05 06:03+1706:06 06:05+191 2m--2322.063280mSECRBanjari Rd, Chhattisgarh
39BKTHBaikunthX  06:15 06:13+2506:17 06:15+232m--2330.346287mSECRBanjari Rd, Chhattisgarh
40TLDTilda (3)X  06:25 06:23+1906:27 06:25+182m--2336.480 SECRBanjari Rd, Chhattisgarh
41HNHathbandhX  06:35 06:33+1906:37 06:35+202m--2347.184283mSECRRaipur, Chhattisgarh
42BYTBhatapara (4)X  06:48 06:46+2206:50 06:48+232m--2362.568270mSECRBanjari Road, Chhattisgarh
43NPINipania  07:05 07:01+2207:06 07:03+221 2m--2377.270259mSECRNational Highway 200, Chhattisgarh
44DGSDagoriX  07:15 07:10+2407:16 07:12+251 2m--2385.592254mSECRCollege Road, Chhattisgarh
45BYLBelha  07:21 07:17+2807:23 07:19+272m--2393.158269mSECRCollege Road, Chhattisgarh
46CHBTChakarbhathaX  07:28 07:25-07:30 07:26-2 1m--2399.037285mSECRBilaspur, Chhattisgarh
47DPHDadhapara (3)XO  07:35 07:31+3207:37 07:32+322 1m--2402.08272mSECRBilaspur, Chhattisgarh
48BSPBilaspur Junction (8)X  08:25+908:40+1615m22408.749271mSECRBilaspur, Chhattisgarh
49GTWGatoraX  08:48+1908:50+192m--2415.157268mSECRBilaspur, Chhattisgarh
50JRMGJairamnagarX  08:58+2109:00+222m--2422.867272mSECRNational Highway 200, Chhattisgarh
51KTSHKotmi Sonar HaltX  09:06-09:08-2m--2429.564266mSECRKotmisunar, Chhattisgarh
52AKTAkaltara (4)X  09:14+2509:16+252m--2435.958284mSECRDist. Janjgir Champa, Chhattisgarh
53KPNAKapan (1)O  09:23 09:24-09:25 09:26-2m12443.654263mSECRNational Highway 200, Chhattisgarh
54NIANailaX  09:34+2409:36+252m--2450.834273mSECRJanjgir, Chhattisgarh
55CPHChampa Junction (3)X  09:55+2410:00+265m--2461.777264mSECRNational Highway 200 (07819-245767), Chhattisgarh
56SGRDSaragaon Road  10:07-10:08-1m--2470.778254mSECRNational Highway 200, Chhattisgarh
57BUABaradwarX  10:12 10:13+3010:14 10:15+322m--2477.261 SECRJanjgir-Champa, Chhattisgarh
58JDDAJetha  10:21 10:22-10:22 10:23-1m--2484.393244mSECRNational Highway 200, Chhattisgarh
59SKTSakti (4)  10:28+3510:30+382m--2492.156237mSECRJanjgir-Champa, Chhattisgarh
60JDIJharradih  10:41+3810:43+442m--2502.363247mSECRRaigarh, Chhattisgarh
61KHSKharsia  10:48+4310:50+432m--2507.573 SECRNational Highway 200, Chhattisgarh
62ROBRobertson  10:57+4510:59+452m--2516.077239mSECRRaigarh, Chhattisgarh
63BEFBhupdeopur  11:07 11:06+5011:09 11:08+502m--2525.079243mSECRRaigarh, Chhattisgarh
64KDTRKirodimalnagar (5)O  11:16 11:15+5411:18 11:17+552m--2534.224240mSECRRaigarh, Chhattisgarh
65RIGRaigarh (3)O  11:35+5011:40+545m--2541.497220mSECRRaigarh, Chhattisgarh
66KRLKotarliaO  11:46+1:0411:48+1:052m--2551.273229mSECRRaigarh, Chhattisgarh
67JMGJamga  11:55+1:0711:57+1:192m--2559.772233mSECRJamga Station, Chhattisgarh
68DAODaghoraX  12:08 12:07+1:1812:10 12:09+1:172m--2571.734269mSECRRaigarh, Chhattisgarh
69HGRHimgir  12:23 12:22+1:1512:25 12:24+1:182m--2579.181275mSECRNational Highway 200, Chhattisgarh
70BPHBelpahar  12:35 12:34+1:2012:37 12:36+1:202m--2592.533 SECRBelpahar, Odisha
71BRJNBrajrajnagarXO  12:58 12:52+1:1413:00 12:54+1:132m--2601.47212mSECRBrajrajnagar, Odisha
72IBIbXO  13:28 13:18+5813:30 13:20+1:012m--2604.17207mSECRJharsuguda, Odisha
73JSGJharsuguda Junction (5)X  14:35+1514:55+2420m--2613.157236mSERJharsuguda, Odisha
74DTVDhutra  15:04+3115:05+341m--2621.747240mSERJharsuguda, Odisha
75PNPLPanpaliX  15:12-15:13-1m--2627.156258mSERJharsuguda, Odisha
76BEHBagdihi (3)O  15:20+3115:21+361m--2633.754257mSERState Highway 24 PH: 06640-286227, Odisha
77DIHDharuadihi  15:28+3815:29+421m--2640.064258mSERSH 24, Odisha
78BMBBamra (3)  15:38+3715:39+421m--2649.656259mSERBamra PH : 06642-229268, Odisha
79TGMTangarmundaX  15:48+4715:49+481m--2658.058264mSERSundargarh, Odisha
80GPHGarpos (3)  15:57+4915:58+521m--2665.847281mSERSundargarh, Odisha
81SOGRSograO  16:04+5716:05+591m--2670.555293mSERState Highway 10, Odisha
82SXNSonakhan  16:12+5716:13+581m--2676.955249mSERSundargarh, Odisha
83GPRaj Gangpur (3)  16:21+5916:22+1:031m--2684.255237mSERRaj Ganpur, Odisha
84KXNKanshbahal  16:32+1:0516:33+1:081m--2693.453217mSERSundargarh, Odisha
85KLGKalunga  16:41+1:0816:42+1:101m--2700.550203mSERSundargarh, Odisha
86PPOPanposh (2)X  16:51+1:1116:52+1:131m--2708.08190mSERRourkela, Odisha
87ROURourkela Junction (5)  17:40+2318:40+2660m42714.060198mSERRourkela, Odisha
88KCABBondamunda K Cabin new halt!!  18:46+5118:47+511m--2720.06214mSERRourkela, Odisha
89BNDMBondamunda (2)  18:53+1:0018:54+1:001m--2720.541213mSERRourkela, Odisha
90BZRBisra  19:05+5019:06+521m--2728.158224mSERSundargarh, Odisha
91BULBhalulata  19:13+5219:14+541m--2735.050239mSERRourkela, Jharkhand
92JRAJaraikelaX  19:23+5219:24+531m--2742.468215mSERJaraikela Station, Jharkhand
93MOUManoharpurX  19:34+5719:35+1:011m--2753.831228mSERManoharpur, Jharkhand
94PSTPosotia (4)X  19:52 19:56+1:0219:53 19:57+1:051m--2764.851279mSERPosotia Station, Jharkhand
95DRWNDerowan P. HaltX  20:01 20:05-20:02 20:06-1m--2771.628275mSERDerowan, Jharkhand
96MXWMahadevsal new halt!!  20:15+5220:16+541m--2775.954321mSERMahadevsal, Jharkhand
97GOLGoilkera (2)  20:18 20:22+1:0620:19 20:23+1:071m--2781.351333mSERGoilkera, Jharkhand
98TUXTunia  20:27 20:31+1:0520:28 20:32+1:071m--2788.145297mSERTunia Station, Jharkhand
99SWRSonua  20:36 20:40+1:0220:37 20:41+1:091m--2794.169287mSERSonua, Jharkhand
100LPHLotapaharX  20:47 20:51+1:1120:48 20:52+1:181m--2805.525251mSERLotapahar Station, Jharkhand
101CKPChakradharpur (3)  21:10 21:15+1:1021:50+4940 35m--2815.164235mSERChakradharpur (West Singhbhum), Jharkhand
102BRMBarabamboX  22:00+2:0622:01+2:101m--2825.856213mSERBarabambo Station, Jharkhand
103RKSNRajkharsawan Junction (3)  22:11+1:0422:12+1:041m--2835.250189mSERSaraikela Kharswan District, Jharkhand
104MMVMahali Marup (2)X  22:21+1:0422:22+1:051m--2842.751183mSERMahali Marup Station, Jharkhand
105SINISini Junction (3)  22:31+1:0322:32+1:031m22850.448182mSERNational Highway 33, Jharkhand
106BRBSBirbans  22:41-22:42-1m--2857.654171mSERBirbans, Jharkhand
107GMHGamharia (3)X  22:52-22:53-1m22866.740165mSERJamshedpur, Jharkhand
108ADTPAdityapur (3)  23:02+023:03+01m22872.74152mSERJamshedpur, Jharkhand
109TATATatanagar Junction (5)•  00:05+3-43877.3-164mSER91-657-2423026, Jharkhand
Scroll to Top
Scroll to Bottom